^^
Grace C. Lehan Memorial Weather Station Historical Data
Daily Summary for March 26, 2021 Units:  English    Metric   Both
Daily Weekly Monthly Yearly
  High: Low: Average:
Temperature: 47.7 °F 35.3 °F 41.1 °F
Dew Point: 42.7 °F 29.8 °F 35.9 °F
Humidity: 94% 56.8% 82%
Wind Speed: 14.4mph 0mph 2.7mph
Wind Gust: 30mph - -
Wind- - West
Pressure: 29.73 in 29.47 in -
Precipitation: 0.20 in    
 
 
Tabular Data for March 26, 2021
Time Temperature Dew Point Pressure Wind Wind Speed Wind Gust Humidity Rainfall Rate (Hourly) solar
00:04 47.7 °F 33.2 °F 29.73 in Calm   1 mph 56.8% 0.00 in 0 W/m2
00:09 47.7 °F 33.9 °F 29.73 in Calm     58.7% 0.00 in 0 W/m2
00:14 47.7 °F 34.6 °F 29.72 in Calm     60.1% 0.00 in 0 W/m2
00:19 47.7 °F 35.3 °F 29.71 in Calm     62% 0.00 in 0 W/m2
00:24 47.6 °F 35.6 °F 29.71 in Calm     62.8% 0.00 in 0 W/m2
00:29 47.5 °F 36 °F 29.71 in Calm     64% 0.00 in 0 W/m2
00:34 47.4 °F 36.2 °F 29.71 in Calm     64.9% 0.00 in 0 W/m2
00:39 47.3 °F 36.6 °F 29.71 in Calm   1 mph 66.2% 0.00 in 0 W/m2
00:44 47.1 °F 37.2 °F 29.71 in Calm   1 mph 68% 0.00 in 0 W/m2
00:49 46.8 °F 37 °F 29.70 in Calm   1 mph 68.3% 0.00 in 0 W/m2
00:54 46.6 °F 36.6 °F 29.71 in Calm   1 mph 68% 0.00 in 0 W/m2
00:59 46.4 °F 36.9 °F 29.71 in Calm   1 mph 69.3% 0.00 in 0 W/m2
01:04 46.2 °F 37.5 °F 29.71 in Calm   1 mph 71.5% 0.00 in 0 W/m2
01:09 45.9 °F 37.4 °F 29.71 in Calm     72% 0.00 in 0 W/m2
01:14 45.7 °F 37.2 °F 29.70 in Calm     72% 0.00 in 0 W/m2
01:19 45.6 °F 37.4 °F 29.70 in Calm     72.7% 0.00 in 0 W/m2
01:24 45.5 °F 37.7 °F 29.70 in Calm     73.8% 0.00 in 0 W/m2
01:29 45.5 °F 37.7 °F 29.70 in Calm     74% 0.00 in 0 W/m2
01:34 45.4 °F 37.9 °F 29.70 in Calm     74.8% 0.00 in 0 W/m2
01:39 45.4 °F 38.3 °F 29.70 in Calm     76% 0.00 in 0 W/m2
01:44 45.4 °F 38.3 °F 29.69 in Calm     76% 0.00 in 0 W/m2
01:49 45.4 °F 38.3 °F 29.70 in Calm     76% 0.00 in 0 W/m2
01:54 45.4 °F 38.3 °F 29.70 in Calm     76% 0.00 in 0 W/m2
01:59 45.4 °F 38.4 °F 29.69 in Calm     76.2% 0.00 in 0 W/m2
02:04 45.5 °F 38.9 °F 29.69 in Calm     77.7% 0.00 in 0 W/m2
02:09 45.5 °F 39.4 °F 29.68 in Calm     79% 0.00 in 0 W/m2
02:14 45.4 °F 39.5 °F 29.68 in Calm     79.6% 0.00 in 0 W/m2
02:19 45.4 °F 39.8 °F 29.68 in Calm     80.6% 0.00 in 0 W/m2
02:24 45.2 °F 39.7 °F 29.67 in Calm     81% 0.00 in 0 W/m2
02:29 45 °F 39.5 °F 29.67 in Calm     81% 0.00 in 0 W/m2
02:34 44.9 °F 39.7 °F 29.67 in Calm     81.9% 0.00 in 0 W/m2
02:39 44.8 °F 39.6 °F 29.66 in Calm     82% 0.00 in 0 W/m2
02:44 44.7 °F 39.8 °F 29.66 in Calm     83% 0.00 in 0 W/m2
02:49 44.6 °F 39.8 °F 29.65 in Calm     83.1% 0.00 in 0 W/m2
02:54 44.5 °F 40 °F 29.64 in Calm     84% 0.00 in 0 W/m2
02:59 44.4 °F 39.8 °F 29.64 in Calm     84% 0.00 in 0 W/m2
03:04 44.3 °F 40 °F 29.64 in Calm     84.9% 0.00 in 0 W/m2
03:05 44.2 °F 40 °F 29.64 in Calm     85% 0.00 in 0 W/m2
03:30 43.6 °F 40 °F 29.64 in Calm     87% 0.00 in 0 W/m2
04:04 43.3 °F 40 °F 29.64 in Calm     87.9% 0.01 in 0 W/m2
04:09 43.3 °F 40.2 °F 29.63 in Calm     88.6% 0.01 in 0 W/m2
04:14 43.2 °F 40.2 °F 29.63 in Calm     89% 0.01 in 0 W/m2
04:19 43.2 °F 40.1 °F 29.63 in Calm     89% 0.01 in 0 W/m2
04:24 43.1 °F 40.1 °F 29.63 in Calm     89% 0.01 in 0 W/m2
04:29 43.1 °F 40.1 °F 29.62 in Calm     89% 0.01 in 0 W/m2
04:34 43.1 °F 40.1 °F 29.62 in Calm     89% 0.01 in 0 W/m2
04:39 43.1 °F 40.1 °F 29.62 in Calm     89% 0.01 in 0 W/m2
04:44 43.1 °F 40.1 °F 29.62 in Calm     89% 0.01 in 0 W/m2
04:49 43.1 °F 40.1 °F 29.62 in Calm     89% 0.01 in 0 W/m2
04:54 43.1 °F 40.2 °F 29.62 in Calm     89.5% 0.01 in 0 W/m2
04:59 43.1 °F 40.3 °F 29.62 in Calm     89.8% 0.01 in 0 W/m2
05:04 43.1 °F 40.1 °F 29.62 in Calm     89% 0.01 in 0 W/m2
05:09 43.1 °F 40.1 °F 29.61 in Calm     89% 0.00 in 0 W/m2
05:14 43.1 °F 40.1 °F 29.61 in Calm     89% 0.00 in 0 W/m2
05:19 43.1 °F 40.1 °F 29.61 in Calm     89% 0.00 in 0 W/m2
05:24 43.1 °F 40.1 °F 29.61 in Calm     89% 0.00 in 0 W/m2
05:29 43.1 °F 40.1 °F 29.61 in Calm     89% 0.00 in 0 W/m2
05:34 43.1 °F 40.1 °F 29.61 in Calm     89% 0.00 in 0 W/m2
05:39 43.1 °F 40.1 °F 29.60 in Calm     89% 0.00 in 0 W/m2
05:44 43.1 °F 40.1 °F 29.60 in Calm     89% 0.00 in 0 W/m2
05:49 43.1 °F 40.1 °F 29.60 in Calm     89% 0.00 in 0 W/m2
05:54 43.1 °F 40 °F 29.60 in Calm     89% 0.00 in 0 W/m2
05:59 43 °F 40 °F 29.59 in Calm     89% 0.00 in 0 W/m2
06:04 43 °F 40 °F 29.59 in Calm     89% 0.00 in 0 W/m2
06:09 43 °F 40 °F 29.59 in Calm     89% 0.00 in 0 W/m2
06:14 43 °F 40 °F 29.59 in Calm     89% 0.00 in 0 W/m2
06:19 43 °F 40 °F 29.59 in Calm     89% 0.00 in 0 W/m2
06:24 42.9 °F 39.9 °F 29.59 in Calm     89% 0.00 in 0 W/m2
06:29 42.9 °F 39.9 °F 29.59 in Calm     89% 0.00 in 0 W/m2
06:34 42.9 °F 39.9 °F 29.59 in Calm     89% 0.00 in 0 W/m2
06:39 42.9 °F 39.9 °F 29.59 in Calm     89% 0.00 in 0 W/m2
06:44 42.9 °F 39.9 °F 29.59 in Calm     89% 0.00 in 0 W/m2
06:49 42.9 °F 39.9 °F 29.59 in Calm     89% 0.00 in 0 W/m2
06:54 42.9 °F 40.1 °F 29.59 in Calm     89.8% 0.00 in 0 W/m2
06:59 42.9 °F 40.2 °F 29.59 in Calm     90% 0.00 in 0 W/m2
07:04 42.9 °F 40.2 °F 29.59 in Calm     90% 0.00 in 0 W/m2
07:09 42.9 °F 40.2 °F 29.58 in Calm     90% 0.00 in 0 W/m2
07:14 42.9 °F 40.2 °F 29.58 in Calm     90% 0.00 in 0 W/m2
07:19 42.9 °F 40.2 °F 29.58 in Calm     90% 0.01 in 0 W/m2
07:24 42.9 °F 40.2 °F 29.57 in Calm     90% 0.01 in 5 W/m2
07:29 42.9 °F 40.4 °F 29.57 in Calm     90.6% 0.01 in 5 W/m2
07:34 42.9 °F 40.5 °F 29.58 in Calm     91% 0.01 in 7 W/m2
07:39 42.9 °F 40.5 °F 29.58 in Calm     91% 0.01 in 9 W/m2
07:44 42.9 °F 40.5 °F 29.58 in Calm     91% 0.01 in 11 W/m2
07:49 42.9 °F 40.5 °F 29.57 in Calm     91% 0.02 in 9 W/m2
07:54 42.9 °F 40.5 °F 29.57 in Calm     91% 0.02 in 11 W/m2
07:59 42.9 °F 40.4 °F 29.57 in Calm     91% 0.02 in 11 W/m2
08:04 42.9 °F 40.5 °F 29.57 in Calm     91% 0.00 in 11 W/m2
08:09 42.9 °F 40.7 °F 29.57 in Calm     91.8% 0.02 in 16 W/m2
08:14 42.9 °F 40.7 °F 29.57 in Calm     92% 0.02 in 16 W/m2
08:19 42.9 °F 40.7 °F 29.56 in Calm     92% 0.02 in 18 W/m2
08:24 42.9 °F 40.7 °F 29.57 in Calm     92% 0.02 in 19 W/m2
08:29 43 °F 40.8 °F 29.57 in Calm     92% 0.02 in 19 W/m2
08:34 43 °F 40.8 °F 29.57 in Calm     92% 0.02 in 23 W/m2
08:39 43 °F 40.8 °F 29.56 in Calm     92% 0.01 in 21 W/m2
08:44 43 °F 40.8 °F 29.56 in Calm     92% 0.01 in 23 W/m2
08:49 43 °F 40.8 °F 29.56 in Calm     92% 0.01 in 28 W/m2
08:54 43 °F 41.1 °F 29.55 in Calm     93% 0.02 in 35 W/m2
08:59 43.1 °F 41.2 °F 29.55 in Calm     93% 0.02 in 33 W/m2
09:04 43.1 °F 41.2 °F 29.55 in Calm     93% 0.02 in 26 W/m2
09:09 43.1 °F 41.2 °F 29.55 in Calm     93% 0.01 in 28 W/m2
09:14 43.2 °F 41.3 °F 29.54 in Calm     93% 0.01 in 26 W/m2
09:19 43.1 °F 41.2 °F 29.54 in Calm     93% 0.02 in 18 W/m2
09:23 43.1 °F 41.2 °F 29.54 in Calm     93% 0.02 in 14 W/m2
09:30 43.2 °F 41.3 °F 29.54 in Calm     93% 0.04 in 20 W/m2
10:00 43.4 °F 41.8 °F 29.53 in Calm   1 mph 94% 0.06 in 31 W/m2
10:30 43.8 °F 42.2 °F 29.52 in Calm     94% 0.07 in 42 W/m2
11:00 44.1 °F 42.5 °F 29.50 in Calm   5 mph 94% 0.09 in 43 W/m2
11:30 44.3 °F 42.7 °F 29.49 in Calm   5 mph 94% 0.11 in 54 W/m2
12:04 43.8 °F 42 °F 29.49 in WNW 7 mph 14 mph 93.1% 0.11 in 76 W/m2
12:09 43.7 °F 41.8 °F 29.48 in WNW 7.5 mph 19 mph 93% 0.09 in 90 W/m2
12:14 43.5 °F 41.4 °F 29.48 in NW 12 mph 25 mph 92.1% 0.09 in 105 W/m2
12:19 43.5 °F 41 °F 29.49 in WNW 5.3 mph 25 mph 91% 0.09 in 107 W/m2
12:24 43.5 °F 40.9 °F 29.49 in WNW 7.6 mph 25 mph 90.7% 0.09 in 83 W/m2
12:29 43.4 °F 40.7 °F 29.49 in WNW 5.7 mph 25 mph 90% 0.09 in 44 W/m2
12:34 43.3 °F 40.6 °F 29.49 in WNW 6.6 mph 25 mph 90% 0.09 in 39 W/m2
12:39 43.1 °F 40.2 °F 29.50 in WNW 10.4 mph 20 mph 89.2% 0.00 in 72 W/m2
12:44 42.9 °F 39.6 °F 29.50 in WNW 13.7 mph 22 mph 87.9% 0.00 in 91 W/m2
12:49 42.7 °F 39.1 °F 29.49 in NW 8.5 mph 22 mph 87% 0.00 in 70 W/m2
12:54 42.6 °F 39.1 °F 29.48 in WNW 8.8 mph 22 mph 87% 0.00 in 134 W/m2
12:59 42.6 °F 38.9 °F 29.48 in WNW 9.4 mph 22 mph 86.7% 0.00 in 206 W/m2
13:04 42.7 °F 38.8 °F 29.48 in WNW 10.1 mph 22 mph 85.9% 0.00 in 167 W/m2
13:09 42.7 °F 38.5 °F 29.48 in WNW 6.1 mph 22 mph 85% 0.00 in 84 W/m2
13:14 42.7 °F 38.5 °F 29.48 in NW 4.2 mph 22 mph 85.1% 0.00 in 102 W/m2
13:19 42.8 °F 38.9 °F 29.48 in WNW 0.9 mph 22 mph 86.2% 0.00 in 199 W/m2
13:24 43 °F 39.4 °F 29.47 in NW 3.3 mph 22 mph 87% 0.00 in 193 W/m2
13:29 43.1 °F 39.2 °F 29.47 in NW 4.6 mph 22 mph 86.1% 0.00 in 214 W/m2
13:34 43.3 °F 39.2 °F 29.47 in WNW 7.9 mph 22 mph 85.5% 0.00 in 214 W/m2
13:39 43.3 °F 38.9 °F 29.47 in WNW 7.8 mph 19 mph 84.2% 0.00 in 202 W/m2
13:44 43.3 °F 38.6 °F 29.47 in WNW 7.1 mph 19 mph 83.4% 0.00 in 146 W/m2
13:49 43.3 °F 38.4 °F 29.47 in NW 8.3 mph 21 mph 82.7% 0.00 in 97 W/m2
13:54 43.1 °F 37.7 °F 29.47 in WNW 6.5 mph 22 mph 81.3% 0.00 in 69 W/m2
13:59 42.9 °F 37.3 °F 29.47 in WNW 9.6 mph 22 mph 80.5% 0.00 in 65 W/m2
14:04 42.7 °F 37 °F 29.47 in WNW 9 mph 22 mph 80% 0.00 in 60 W/m2
14:09 42.5 °F 36.7 °F 29.47 in WNW 13 mph 25 mph 79.6% 0.00 in 88 W/m2
14:14 42.4 °F 36.8 °F 29.47 in WNW 12.2 mph 25 mph 80.5% 0.00 in 100 W/m2
14:19 42.4 °F 36.1 °F 29.48 in NW 14.4 mph 30 mph 78.1% 0.00 in 90 W/m2
14:24 42.3 °F 35.7 °F 29.48 in NW 13 mph 30 mph 77% 0.00 in 67 W/m2
14:29 42.3 °F 35.3 °F 29.48 in WNW 11.3 mph 30 mph 76.2% 0.00 in 72 W/m2
14:34 42.2 °F 35.2 °F 29.48 in WNW 11.3 mph 30 mph 76% 0.00 in 81 W/m2
14:39 42.2 °F 35 °F 29.49 in WNW 10.2 mph 21 mph 75.5% 0.00 in 84 W/m2
14:44 42.1 °F 34.9 °F 29.49 in WNW 10 mph 21 mph 75.2% 0.00 in 83 W/m2
14:49 42.1 °F 34.9 °F 29.48 in WNW 7 mph 21 mph 75.3% 0.00 in 83 W/m2
14:54 42 °F 35 °F 29.49 in WNW 9.3 mph 21 mph 76% 0.00 in 72 W/m2
14:59 41.9 °F 34.6 °F 29.49 in NW 8.6 mph 21 mph 75.3% 0.00 in 47 W/m2
15:04 41.8 °F 34.4 °F 29.48 in WNW 8.2 mph 21 mph 75% 0.00 in 32 W/m2
15:09 41.6 °F 34.3 °F 29.48 in NW 7.4 mph 17 mph 75% 0.00 in 25 W/m2
15:14 41.4 °F 34.2 °F 29.48 in WNW 9 mph 17 mph 75.2% 0.00 in 25 W/m2
15:19 41.3 °F 34.2 °F 29.49 in WNW 8.4 mph 17 mph 75.6% 0.00 in 19 W/m2
15:24 41.2 °F 34.1 °F 29.49 in WNW 12.5 mph 25 mph 75.4% 0.00 in 28 W/m2
15:29 41.2 °F 33.7 °F 29.49 in WNW 8.8 mph 25 mph 74.4% 0.00 in 44 W/m2
15:34 41.2 °F 33.8 °F 29.50 in WNW 6.5 mph 25 mph 74.7% 0.00 in 49 W/m2
15:39 41.3 °F 34 °F 29.50 in WNW 6.4 mph 14 mph 75% 0.00 in 51 W/m2
15:44 41.3 °F 33.8 °F 29.50 in WNW 6.4 mph 15 mph 74.5% 0.00 in 47 W/m2
15:49 41.2 °F 33.3 °F 29.50 in WNW 8.5 mph 17 mph 73.1% 0.00 in 33 W/m2
15:54 41.1 °F 33.1 °F 29.51 in NW 9.9 mph 20 mph 72.8% 0.00 in 25 W/m2
15:59 41 °F 33 °F 29.51 in West 2.1 mph 20 mph 73.1% 0.00 in 18 W/m2
16:09 40.7 °F 33.3 °F 29.51 in West 1.8 mph 7 mph 74.6% 0.00 in 7 W/m2
16:14 40.6 °F 33.4 °F 29.51 in West 2.3 mph 7 mph 75% 0.00 in 0 W/m2
16:19 40.5 °F 33.1 °F 29.51 in West 3.4 mph 14 mph 74.8% 0.00 in 0 W/m2
16:24 40.3 °F 33.1 °F 29.51 in West 3.6 mph 14 mph 75% 0.00 in 0 W/m2
16:29 40.2 °F 32.9 °F 29.51 in West 6.5 mph 16 mph 75.1% 0.00 in 0 W/m2
16:34 40.1 °F 32.8 °F 29.51 in WNW 7.7 mph 18 mph 74.9% 0.00 in 0 W/m2
16:39 39.9 °F 32.3 °F 29.52 in West 7.7 mph 19 mph 74% 0.00 in 0 W/m2
16:44 39.8 °F 32.2 °F 29.52 in West 7.4 mph 22 mph 74% 0.00 in 0 W/m2
16:49 39.7 °F 32.1 °F 29.52 in West 2.7 mph 22 mph 74% 0.00 in 0 W/m2
16:54 39.6 °F 32.3 °F 29.52 in West 5.6 mph 22 mph 75% 0.00 in 0 W/m2
16:59 39.4 °F 32.3 °F 29.53 in West 7.6 mph 22 mph 75.5% 0.00 in 0 W/m2
17:04 39.2 °F 32.3 °F 29.53 in West 7.7 mph 22 mph 76.1% 0.00 in 0 W/m2
17:09 39 °F 32.4 °F 29.53 in WNW 4 mph 16 mph 77% 0.00 in 0 W/m2
17:14 38.9 °F 32.6 °F 29.53 in West 0.5 mph 16 mph 77.8% 0.00 in 0 W/m2
17:19 38.8 °F 32.8 °F 29.53 in West 3.3 mph 16 mph 78.7% 0.00 in 0 W/m2
17:24 38.7 °F 32.8 °F 29.54 in WSW 1 mph 16 mph 79% 0.00 in 0 W/m2
17:29 38.6 °F 32.9 °F 29.54 in WSW 1.7 mph 16 mph 79.7% 0.00 in 0 W/m2
17:34 38.5 °F 32.9 °F 29.54 in WSW 2.3 mph 16 mph 80% 0.00 in 0 W/m2
17:39 38.4 °F 32.9 °F 29.54 in WSW 1.4 mph 15 mph 80.5% 0.00 in 0 W/m2
17:44 38.4 °F 33.1 °F 29.54 in WSW 2.3 mph 15 mph 81% 0.00 in 0 W/m2
17:49 38.3 °F 33 °F 29.54 in West 0.7 mph 15 mph 81% 0.00 in 0 W/m2
17:54 38.2 °F 33.2 °F 29.54 in WSW 0.7 mph 15 mph 81.9% 0.00 in 0 W/m2
17:59 38.2 °F 33.2 °F 29.54 in West 0.9 mph 15 mph 82% 0.00 in 0 W/m2
18:04 38.1 °F 33 °F 29.54 in West 0.4 mph 15 mph 81.7% 0.00 in 0 W/m2
18:09 38 °F 32.9 °F 29.54 in West 0.2 mph 9 mph 81.8% 0.00 in 0 W/m2
18:14 38 °F 33.3 °F 29.54 in WSW 0.9 mph 13 mph 83% 0.00 in 0 W/m2
18:19 37.8 °F 33.1 °F 29.53 in WSW 2 mph 13 mph 83% 0.00 in 0 W/m2
18:24 37.7 °F 33.2 °F 29.53 in West 1.7 mph 13 mph 83.8% 0.00 in 0 W/m2
18:29 37.5 °F 33.1 °F 29.53 in WSW 2.6 mph 13 mph 83.8% 0.00 in 0 W/m2
18:34 37.4 °F 32.7 °F 29.53 in WSW 2.2 mph 16 mph 83% 0.00 in 0 W/m2
18:39 37.3 °F 32.6 °F 29.53 in WSW 0.3 mph 16 mph 82.8% 0.00 in 0 W/m2
18:44 37.3 °F 32.3 °F 29.53 in WNW 2.8 mph 16 mph 81.9% 0.00 in 0 W/m2
18:49 37.3 °F 32 °F 29.53 in West 0.7 mph 16 mph 81% 0.00 in 0 W/m2
18:54 37.3 °F 31.8 °F 29.54 in West 3.1 mph 16 mph 80.4% 0.00 in 0 W/m2
18:59 37.3 °F 31.7 °F 29.54 in WNW 4.5 mph 16 mph 80% 0.00 in 0 W/m2
19:04 37.3 °F 31.4 °F 29.54 in West 3.8 mph 16 mph 79.1% 0.00 in 0 W/m2
19:09 37.3 °F 31.4 °F 29.53 in West 3.4 mph 13 mph 79% 0.00 in 0 W/m2
19:14 37.3 °F 31.4 °F 29.53 in West 3.1 mph 13 mph 79% 0.00 in 0 W/m2
19:19 37.3 °F 31.4 °F 29.53 in WSW 3.4 mph 13 mph 79% 0.00 in 0 W/m2
19:24 37.2 °F 31.3 °F 29.53 in West 6 mph 18 mph 79% 0.00 in 0 W/m2
19:29 37.1 °F 31 °F 29.53 in WSW 4 mph 19 mph 78.2% 0.00 in 0 W/m2
19:34 37 °F 30.8 °F 29.53 in West 5.7 mph 19 mph 78% 0.00 in 0 W/m2
19:39 36.9 °F 30.7 °F 29.53 in West 3.1 mph 15 mph 78% 0.00 in 0 W/m2
19:44 36.9 °F 30.6 °F 29.53 in West 3.6 mph 15 mph 77.9% 0.00 in 0 W/m2
19:49 36.8 °F 30.6 °F 29.53 in WSW 1.8 mph 15 mph 78% 0.00 in 0 W/m2
19:54 36.7 °F 30.3 °F 29.53 in West 7.7 mph 18 mph 77.2% 0.00 in 0 W/m2
19:59 36.6 °F 29.9 °F 29.53 in West 6.4 mph 19 mph 76.3% 0.00 in 0 W/m2
20:00 36.6 °F 29.8 °F 29.53 in WSW 5 mph 19 mph 76% 0.00 in 0 W/m2
20:09 36.5 °F 30 °F 29.53 in West 2 mph 12 mph 77% 0.00 in 0 W/m2
20:14 36.5 °F 30 °F 29.53 in WSW 5.1 mph 15 mph 77.2% 0.00 in 0 W/m2
20:19 36.4 °F 29.9 °F 29.53 in West 4.5 mph 15 mph 77% 0.00 in 0 W/m2
20:24 36.4 °F 30 °F 29.54 in West 2.7 mph 15 mph 77.5% 0.00 in 0 W/m2
20:29 36.3 °F 30.1 °F 29.54 in West 3.7 mph 15 mph 78% 0.00 in 0 W/m2
20:34 36.3 °F 30.1 °F 29.54 in West 1.9 mph 15 mph 78% 0.00 in 0 W/m2
20:39 36.2 °F 30 °F 29.54 in WNW 3.1 mph 15 mph 78% 0.00 in 0 W/m2
20:44 36.2 °F 30 °F 29.54 in West 0.6 mph 15 mph 78% 0.00 in 0 W/m2
20:49 36.2 °F 30 °F 29.54 in West 2.1 mph 15 mph 78% 0.00 in 0 W/m2
20:54 36.2 °F 30 °F 29.54 in West 2.8 mph 15 mph 78% 0.00 in 0 W/m2
20:59 36.2 °F 30 °F 29.54 in WSW 2.4 mph 15 mph 78% 0.00 in 0 W/m2
21:04 36.1 °F 29.9 °F 29.54 in West 5.8 mph 15 mph 78% 0.00 in 0 W/m2
21:09 36.1 °F 29.9 °F 29.54 in West 2.5 mph 12 mph 78% 0.00 in 0 W/m2
21:14 36.1 °F 30 °F 29.53 in West 2.5 mph 12 mph 78.1% 0.00 in 0 W/m2
21:19 36.1 °F 30.1 °F 29.53 in West 2.8 mph 12 mph 78.5% 0.00 in 0 W/m2
21:24 36.1 °F 30 °F 29.53 in West 3.7 mph 19 mph 78.2% 0.00 in 0 W/m2
21:29 36.1 °F 30.1 °F 29.53 in West 3.8 mph 19 mph 78.7% 0.00 in 0 W/m2
21:34 36 °F 30.1 °F 29.53 in West 2 mph 19 mph 79% 0.00 in 0 W/m2
21:39 36 °F 30.1 °F 29.53 in West 2 mph 12 mph 79% 0.00 in 0 W/m2
21:44 35.9 °F 30 °F 29.53 in WNW 3 mph 12 mph 79% 0.00 in 0 W/m2
21:49 35.9 °F 30 °F 29.53 in West 3.2 mph 15 mph 79% 0.00 in 0 W/m2
21:54 35.9 °F 30 °F 29.53 in WSW 2 mph 15 mph 79% 0.00 in 0 W/m2
21:59 35.8 °F 30 °F 29.53 in West 2.4 mph 15 mph 79.2% 0.00 in 0 W/m2
22:04 35.8 °F 30.2 °F 29.53 in West 2.4 mph 15 mph 80% 0.00 in 0 W/m2
22:09 35.7 °F 30.2 °F 29.53 in West 2.2 mph 13 mph 80% 0.00 in 0 W/m2
22:14 35.7 °F 30.2 °F 29.53 in West 1.1 mph 13 mph 80% 0.00 in 0 W/m2
22:19 35.6 °F 30.1 °F 29.53 in West 3.1 mph 13 mph 80% 0.00 in 0 W/m2
22:24 35.6 °F 30.1 °F 29.53 in West 1.8 mph 13 mph 80% 0.00 in 0 W/m2
22:29 35.5 °F 30 °F 29.53 in WSW 1.4 mph 13 mph 80.2% 0.00 in 0 W/m2
22:34 35.5 °F 30.3 °F 29.53 in West 2.6 mph 13 mph 81% 0.00 in 0 W/m2
22:39 35.4 °F 30.2 °F 29.53 in WSW 1.9 mph 14 mph 81% 0.00 in 0 W/m2
22:44 35.4 °F 30.2 °F 29.53 in WSW 2.7 mph 14 mph 81% 0.00 in 0 W/m2
22:49 35.4 °F 30.2 °F 29.53 in WSW 1.5 mph 14 mph 81% 0.00 in 0 W/m2
22:54 35.4 °F 30.1 °F 29.53 in SW 2 mph 14 mph 81% 0.00 in 0 W/m2
22:59 35.3 °F 30.1 °F 29.53 in SW 0.8 mph 14 mph 81% 0.00 in 0 W/m2
23:00 35.3 °F 30.1 °F 29.53 in Calm   14 mph 81% 0.00 in 0 W/m2
23:09 35.3 °F 30.1 °F 29.53 in West 2.1 mph 10 mph 81% 0.00 in 0 W/m2
23:14 35.3 °F 30.1 °F 29.53 in WSW 1.2 mph 11 mph 81% 0.00 in 0 W/m2
23:19 35.3 °F 30.1 °F 29.53 in WSW 2 mph 11 mph 81% 0.00 in 0 W/m2
23:24 35.3 °F 30.1 °F 29.53 in WNW 1.3 mph 11 mph 81% 0.00 in 0 W/m2
23:29 35.3 °F 30.1 °F 29.53 in West 1.5 mph 11 mph 81% 0.00 in 0 W/m2
23:34 35.3 °F 30.1 °F 29.54 in West 1.6 mph 11 mph 81% 0.00 in 0 W/m2
23:39 35.3 °F 30.1 °F 29.54 in WSW 1.1 mph 10 mph 81% 0.00 in 0 W/m2
23:44 35.3 °F 30.3 °F 29.53 in West 0.9 mph 10 mph 81.7% 0.00 in 0 W/m2
23:49 35.3 °F 30.3 °F 29.54 in West 3.2 mph 11 mph 81.8% 0.00 in 0 W/m2
23:54 35.3 °F 30.1 °F 29.53 in West 0.7 mph 11 mph 81% 0.00 in 0 W/m2
23:59 35.3 °F 30.1 °F 29.53 in West 0.8 mph 11 mph 81% 0.00 in 0 W/m2
Hartford County Weather
Compliments of Weather Underground - 4 mb